sensor_id;sensor_type;location;lat;lon;timestamp;temperature;humidity
3626;DHT22;1827;50.534;8.316;2022-11-20T00:02:10;-0.60;99.90
3626;DHT22;1827;50.534;8.316;2022-11-20T00:04:36;-0.60;99.90
3626;DHT22;1827;50.534;8.316;2022-11-20T00:07:01;-0.70;99.90
3626;DHT22;1827;50.534;8.316;2022-11-20T00:09:27;-0.60;99.90
3626;DHT22;1827;50.534;8.316;2022-11-20T00:11:52;-0.70;99.90
3626;DHT22;1827;50.534;8.316;2022-11-20T00:14:18;-0.80;99.90
3626;DHT22;1827;50.534;8.316;2022-11-20T00:16:43;-0.80;99.90
3626;DHT22;1827;50.534;8.316;2022-11-20T00:19:09;-0.70;99.90
3626;DHT22;1827;50.534;8.316;2022-11-20T00:21:34;-0.70;99.90
3626;DHT22;1827;50.534;8.316;2022-11-20T00:24:00;-0.70;99.90
3626;DHT22;1827;50.534;8.316;2022-11-20T00:26:26;-0.70;99.90
3626;DHT22;1827;50.534;8.316;2022-11-20T00:28:53;-0.80;99.90
3626;DHT22;1827;50.534;8.316;2022-11-20T00:31:18;-0.80;99.90
3626;DHT22;1827;50.534;8.316;2022-11-20T00:33:44;-0.60;99.90
3626;DHT22;1827;50.534;8.316;2022-11-20T00:36:11;-0.60;99.90
3626;DHT22;1827;50.534;8.316;2022-11-20T00:38:36;-0.60;99.90
3626;DHT22;1827;50.534;8.316;2022-11-20T00:41:03;-0.70;99.90
3626;DHT22;1827;50.534;8.316;2022-11-20T00:43:29;-0.70;99.90
3626;DHT22;1827;50.534;8.316;2022-11-20T00:48:24;-0.70;99.90
3626;DHT22;1827;50.534;8.316;2022-11-20T00:50:49;-0.70;99.90
3626;DHT22;1827;50.534;8.316;2022-11-20T00:53:15;-0.70;99.90
3626;DHT22;1827;50.534;8.316;2022-11-20T00:55:40;-0.70;99.90
3626;DHT22;1827;50.534;8.316;2022-11-20T00:58:07;-0.80;99.90
3626;DHT22;1827;50.534;8.316;2022-11-20T01:00:33;-0.80;99.90
3626;DHT22;1827;50.534;8.316;2022-11-20T01:02:58;-0.80;99.90
3626;DHT22;1827;50.534;8.316;2022-11-20T01:05:24;-0.70;99.90
3626;DHT22;1827;50.534;8.316;2022-11-20T01:07:50;-0.80;99.90
3626;DHT22;1827;50.534;8.316;2022-11-20T01:10:15;-0.80;99.90
3626;DHT22;1827;50.534;8.316;2022-11-20T01:12:41;-0.90;99.90
3626;DHT22;1827;50.534;8.316;2022-11-20T01:15:07;-0.80;99.90
3626;DHT22;1827;50.534;8.316;2022-11-20T01:17:33;-0.80;99.90
3626;DHT22;1827;50.534;8.316;2022-11-20T01:19:58;-0.90;99.90
3626;DHT22;1827;50.534;8.316;2022-11-20T01:22:24;-0.80;99.90
3626;DHT22;1827;50.534;8.316;2022-11-20T01:24:50;-0.90;99.90
3626;DHT22;1827;50.534;8.316;2022-11-20T01:27:15;-0.80;99.90
3626;DHT22;1827;50.534;8.316;2022-11-20T01:29:41;-0.80;99.90
3626;DHT22;1827;50.534;8.316;2022-11-20T01:32:06;-0.80;99.90
3626;DHT22;1827;50.534;8.316;2022-11-20T01:34:32;-0.80;99.90
3626;DHT22;1827;50.534;8.316;2022-11-20T01:36:57;-0.70;99.90
3626;DHT22;1827;50.534;8.316;2022-11-20T01:39:24;-0.80;99.90
3626;DHT22;1827;50.534;8.316;2022-11-20T01:41:50;-0.70;99.90
3626;DHT22;1827;50.534;8.316;2022-11-20T01:44:43;-0.70;99.90
3626;DHT22;1827;50.534;8.316;2022-11-20T01:47:11;-0.70;99.90
3626;DHT22;1827;50.534;8.316;2022-11-20T01:49:58;-0.70;99.90
3626;DHT22;1827;50.534;8.316;2022-11-20T01:52:30;-0.60;99.90
3626;DHT22;1827;50.534;8.316;2022-11-20T01:55:04;-0.50;99.90
3626;DHT22;1827;50.534;8.316;2022-11-20T01:57:32;-0.50;99.90
3626;DHT22;1827;50.534;8.316;2022-11-20T02:00:04;-0.60;99.90
3626;DHT22;1827;50.534;8.316;2022-11-20T02:02:37;-0.50;99.90
3626;DHT22;1827;50.534;8.316;2022-11-20T02:05:09;-0.70;99.90
3626;DHT22;1827;50.534;8.316;2022-11-20T02:07:37;-0.60;99.90
3626;DHT22;1827;50.534;8.316;2022-11-20T02:10:03;-0.60;99.90
3626;DHT22;1827;50.534;8.316;2022-11-20T02:12:28;-0.60;99.90
3626;DHT22;1827;50.534;8.316;2022-11-20T02:15:13;-0.60;99.90
3626;DHT22;1827;50.534;8.316;2022-11-20T02:17:38;-0.50;99.90
3626;DHT22;1827;50.534;8.316;2022-11-20T02:20:04;-0.60;99.90
3626;DHT22;1827;50.534;8.316;2022-11-20T02:22:42;-0.80;99.90
3626;DHT22;1827;50.534;8.316;2022-11-20T02:25:10;-0.70;99.90
3626;DHT22;1827;50.534;8.316;2022-11-20T02:27:37;-0.80;99.90
3626;DHT22;1827;50.534;8.316;2022-11-20T02:30:05;-0.80;99.90
3626;DHT22;1827;50.534;8.316;2022-11-20T02:32:33;-0.80;99.90
3626;DHT22;1827;50.534;8.316;2022-11-20T02:35:09;-0.70;99.90
3626;DHT22;1827;50.534;8.316;2022-11-20T02:37:36;-0.70;99.90
3626;DHT22;1827;50.534;8.316;2022-11-20T02:40:02;-0.70;99.90
3626;DHT22;1827;50.534;8.316;2022-11-20T02:42:28;-0.80;99.90
3626;DHT22;1827;50.534;8.316;2022-11-20T02:44:54;-0.80;99.90
3626;DHT22;1827;50.534;8.316;2022-11-20T02:47:19;-0.80;99.90
3626;DHT22;1827;50.534;8.316;2022-11-20T02:49:45;-0.70;99.90
3626;DHT22;1827;50.534;8.316;2022-11-20T02:52:10;-0.60;99.90
3626;DHT22;1827;50.534;8.316;2022-11-20T02:54:36;-0.50;99.90
3626;DHT22;1827;50.534;8.316;2022-11-20T02:57:01;-0.50;99.90
3626;DHT22;1827;50.534;8.316;2022-11-20T02:59:27;-0.60;99.90
3626;DHT22;1827;50.534;8.316;2022-11-20T03:01:52;-0.60;99.90
3626;DHT22;1827;50.534;8.316;2022-11-20T03:04:18;-0.60;99.90
3626;DHT22;1827;50.534;8.316;2022-11-20T03:06:44;-0.50;99.90
3626;DHT22;1827;50.534;8.316;2022-11-20T03:09:09;-0.50;99.90
3626;DHT22;1827;50.534;8.316;2022-11-20T03:11:35;-0.60;99.90
3626;DHT22;1827;50.534;8.316;2022-11-20T03:14:04;-0.50;99.90
3626;DHT22;1827;50.534;8.316;2022-11-20T03:16:30;-0.50;99.90
3626;DHT22;1827;50.534;8.316;2022-11-20T03:18:56;-0.50;99.90
3626;DHT22;1827;50.534;8.316;2022-11-20T03:21:21;-0.60;99.90
3626;DHT22;1827;50.534;8.316;2022-11-20T03:23:47;-0.60;99.90
3626;DHT22;1827;50.534;8.316;2022-11-20T03:28:38;-0.50;99.90
3626;DHT22;1827;50.534;8.316;2022-11-20T03:31:05;-0.60;99.90
3626;DHT22;1827;50.534;8.316;2022-11-20T03:33:31;-0.50;99.90
3626;DHT22;1827;50.534;8.316;2022-11-20T03:36:00;-0.40;99.90
3626;DHT22;1827;50.534;8.316;2022-11-20T03:38:26;-0.40;99.90
3626;DHT22;1827;50.534;8.316;2022-11-20T03:40:57;-0.40;99.90
3626;DHT22;1827;50.534;8.316;2022-11-20T03:43:23;-0.40;99.90
3626;DHT22;1827;50.534;8.316;2022-11-20T03:45:48;-0.50;99.90
3626;DHT22;1827;50.534;8.316;2022-11-20T03:48:14;-0.60;99.90
3626;DHT22;1827;50.534;8.316;2022-11-20T03:50:39;-0.60;99.90
3626;DHT22;1827;50.534;8.316;2022-11-20T03:53:05;-0.60;99.90
3626;DHT22;1827;50.534;8.316;2022-11-20T03:55:30;-0.50;99.90
3626;DHT22;1827;50.534;8.316;2022-11-20T03:57:56;-0.50;99.90
3626;DHT22;1827;50.534;8.316;2022-11-20T04:00:21;-0.50;99.90
3626;DHT22;1827;50.534;8.316;2022-11-20T04:02:47;-0.40;99.90
3626;DHT22;1827;50.534;8.316;2022-11-20T04:05:12;-0.50;99.90
3626;DHT22;1827;50.534;8.316;2022-11-20T04:07:38;-0.60;99.90
3626;DHT22;1827;50.534;8.316;2022-11-20T04:10:03;-0.60;99.90
3626;DHT22;1827;50.534;8.316;2022-11-20T04:12:31;-0.40;99.90
3626;DHT22;1827;50.534;8.316;2022-11-20T04:14:57;-0.40;99.90
3626;DHT22;1827;50.534;8.316;2022-11-20T04:17:22;-0.40;99.90
3626;DHT22;1827;50.534;8.316;2022-11-20T04:19:48;-0.30;99.90
3626;DHT22;1827;50.534;8.316;2022-11-20T04:22:14;-0.50;99.90
3626;DHT22;1827;50.534;8.316;2022-11-20T04:24:39;-0.60;99.90
3626;DHT22;1827;50.534;8.316;2022-11-20T04:27:05;-0.50;99.90
3626;DHT22;1827;50.534;8.316;2022-11-20T04:29:30;-0.50;99.90
3626;DHT22;1827;50.534;8.316;2022-11-20T04:31:56;-0.40;99.90
3626;DHT22;1827;50.534;8.316;2022-11-20T04:34:21;-0.40;99.90
3626;DHT22;1827;50.534;8.316;2022-11-20T04:36:47;-0.40;99.90
3626;DHT22;1827;50.534;8.316;2022-11-20T04:39:13;-0.30;99.90
3626;DHT22;1827;50.534;8.316;2022-11-20T04:41:40;-0.20;99.90
3626;DHT22;1827;50.534;8.316;2022-11-20T04:44:06;-0.10;99.90
3626;DHT22;1827;50.534;8.316;2022-11-20T04:46:33;-0.20;99.90
3626;DHT22;1827;50.534;8.316;2022-11-20T04:48:59;-0.10;99.90
3626;DHT22;1827;50.534;8.316;2022-11-20T04:51:24;0.00;99.90
3626;DHT22;1827;50.534;8.316;2022-11-20T04:53:50;-0.10;99.90
3626;DHT22;1827;50.534;8.316;2022-11-20T04:56:16;-0.20;99.90
3626;DHT22;1827;50.534;8.316;2022-11-20T04:58:42;-0.30;99.90
3626;DHT22;1827;50.534;8.316;2022-11-20T05:01:12;-0.20;99.90
3626;DHT22;1827;50.534;8.316;2022-11-20T05:03:38;-0.40;99.90
3626;DHT22;1827;50.534;8.316;2022-11-20T05:06:04;-0.40;99.90
3626;DHT22;1827;50.534;8.316;2022-11-20T05:08:30;-0.30;99.90
3626;DHT22;1827;50.534;8.316;2022-11-20T05:11:03;-0.30;99.90
3626;DHT22;1827;50.534;8.316;2022-11-20T05:13:29;-0.30;99.90
3626;DHT22;1827;50.534;8.316;2022-11-20T05:15:55;-0.30;99.90
3626;DHT22;1827;50.534;8.316;2022-11-20T05:18:21;-0.20;99.90
3626;DHT22;1827;50.534;8.316;2022-11-20T05:20:53;-0.30;99.90
3626;DHT22;1827;50.534;8.316;2022-11-20T05:23:19;-0.20;99.90
3626;DHT22;1827;50.534;8.316;2022-11-20T05:25:44;-0.40;99.90
3626;DHT22;1827;50.534;8.316;2022-11-20T05:28:10;-0.40;99.90
3626;DHT22;1827;50.534;8.316;2022-11-20T05:30:36;-0.50;99.90
3626;DHT22;1827;50.534;8.316;2022-11-20T05:33:01;-0.60;99.90
3626;DHT22;1827;50.534;8.316;2022-11-20T05:35:27;-0.50;99.90
3626;DHT22;1827;50.534;8.316;2022-11-20T05:37:52;-0.50;99.90
3626;DHT22;1827;50.534;8.316;2022-11-20T05:40:18;-0.50;99.90
3626;DHT22;1827;50.534;8.316;2022-11-20T05:42:44;-0.50;99.90
3626;DHT22;1827;50.534;8.316;2022-11-20T05:45:09;-0.70;99.90
3626;DHT22;1827;50.534;8.316;2022-11-20T05:47:35;-0.70;99.90
3626;DHT22;1827;50.534;8.316;2022-11-20T05:50:01;-0.70;99.90
3626;DHT22;1827;50.534;8.316;2022-11-20T05:52:29;-0.50;99.90
3626;DHT22;1827;50.534;8.316;2022-11-20T05:54:55;-0.40;99.90
3626;DHT22;1827;50.534;8.316;2022-11-20T05:57:21;-0.40;99.90
3626;DHT22;1827;50.534;8.316;2022-11-20T05:59:47;-0.60;99.90
3626;DHT22;1827;50.534;8.316;2022-11-20T06:02:12;-0.50;99.90
3626;DHT22;1827;50.534;8.316;2022-11-20T06:04:38;-0.40;99.90
3626;DHT22;1827;50.534;8.316;2022-11-20T06:07:06;-0.40;99.90
3626;DHT22;1827;50.534;8.316;2022-11-20T06:09:32;-0.30;99.90
3626;DHT22;1827;50.534;8.316;2022-11-20T06:11:58;-0.50;99.90
3626;DHT22;1827;50.534;8.316;2022-11-20T06:14:23;-0.70;99.90
3626;DHT22;1827;50.534;8.316;2022-11-20T06:16:49;-0.70;99.90
3626;DHT22;1827;50.534;8.316;2022-11-20T06:19:14;-0.60;99.90
3626;DHT22;1827;50.534;8.316;2022-11-20T06:21:40;-0.40;99.90
3626;DHT22;1827;50.534;8.316;2022-11-20T06:24:06;-0.40;99.90
3626;DHT22;1827;50.534;8.316;2022-11-20T06:26:32;-0.30;99.90
3626;DHT22;1827;50.534;8.316;2022-11-20T06:28:57;-0.20;99.90
3626;DHT22;1827;50.534;8.316;2022-11-20T06:31:23;-0.20;99.90
3626;DHT22;1827;50.534;8.316;2022-11-20T06:33:50;-0.20;99.90
3626;DHT22;1827;50.534;8.316;2022-11-20T06:36:16;-0.30;99.90
3626;DHT22;1827;50.534;8.316;2022-11-20T06:38:42;-0.60;99.90
3626;DHT22;1827;50.534;8.316;2022-11-20T06:41:15;-0.60;99.90
3626;DHT22;1827;50.534;8.316;2022-11-20T06:43:41;-0.50;99.90
3626;DHT22;1827;50.534;8.316;2022-11-20T06:46:06;-0.40;99.90
3626;DHT22;1827;50.534;8.316;2022-11-20T06:48:32;-0.30;99.90
3626;DHT22;1827;50.534;8.316;2022-11-20T06:50:58;-0.20;99.90
3626;DHT22;1827;50.534;8.316;2022-11-20T06:53:23;-0.20;99.90
3626;DHT22;1827;50.534;8.316;2022-11-20T06:55:49;-0.20;99.90
3626;DHT22;1827;50.534;8.316;2022-11-20T06:58:15;-0.10;99.90
3626;DHT22;1827;50.534;8.316;2022-11-20T07:00:41;0.00;99.90
3626;DHT22;1827;50.534;8.316;2022-11-20T07:03:07;-0.10;99.90
3626;DHT22;1827;50.534;8.316;2022-11-20T07:05:34;-0.10;99.90
3626;DHT22;1827;50.534;8.316;2022-11-20T07:08:00;-0.10;99.90
3626;DHT22;1827;50.534;8.316;2022-11-20T07:10:25;-0.20;99.90
3626;DHT22;1827;50.534;8.316;2022-11-20T07:12:51;-0.20;99.90
3626;DHT22;1827;50.534;8.316;2022-11-20T07:15:18;-0.40;99.90
3626;DHT22;1827;50.534;8.316;2022-11-20T07:17:43;-0.40;99.90
3626;DHT22;1827;50.534;8.316;2022-11-20T07:20:09;-0.20;99.90
3626;DHT22;1827;50.534;8.316;2022-11-20T07:22:35;-0.10;99.90
3626;DHT22;1827;50.534;8.316;2022-11-20T07:25:00;-0.10;99.90
3626;DHT22;1827;50.534;8.316;2022-11-20T07:27:27;-0.10;99.90
3626;DHT22;1827;50.534;8.316;2022-11-20T07:29:53;0.00;99.90
3626;DHT22;1827;50.534;8.316;2022-11-20T07:32:18;-0.10;99.90
3626;DHT22;1827;50.534;8.316;2022-11-20T07:34:44;-0.10;99.90
3626;DHT22;1827;50.534;8.316;2022-11-20T07:37:10;0.00;99.90
3626;DHT22;1827;50.534;8.316;2022-11-20T07:39:35;0.00;99.90
3626;DHT22;1827;50.534;8.316;2022-11-20T07:42:01;0.00;99.90
3626;DHT22;1827;50.534;8.316;2022-11-20T07:44:26;0.00;99.90
3626;DHT22;1827;50.534;8.316;2022-11-20T07:46:52;0.00;99.90
3626;DHT22;1827;50.534;8.316;2022-11-20T07:49:17;-0.10;99.90
3626;DHT22;1827;50.534;8.316;2022-11-20T07:51:43;-0.10;99.90
3626;DHT22;1827;50.534;8.316;2022-11-20T07:54:08;0.00;99.90
3626;DHT22;1827;50.534;8.316;2022-11-20T07:56:34;0.00;99.90
3626;DHT22;1827;50.534;8.316;2022-11-20T07:59:00;0.10;99.90
3626;DHT22;1827;50.534;8.316;2022-11-20T08:01:25;0.10;99.90
3626;DHT22;1827;50.534;8.316;2022-11-20T08:03:51;0.10;99.90
3626;DHT22;1827;50.534;8.316;2022-11-20T08:06:16;0.10;99.90
3626;DHT22;1827;50.534;8.316;2022-11-20T08:08:43;0.00;99.90
3626;DHT22;1827;50.534;8.316;2022-11-20T08:11:09;0.20;99.90
3626;DHT22;1827;50.534;8.316;2022-11-20T08:13:53;0.30;99.90
3626;DHT22;1827;50.534;8.316;2022-11-20T08:16:38;0.40;99.90
3626;DHT22;1827;50.534;8.316;2022-11-20T08:19:03;0.40;99.90
3626;DHT22;1827;50.534;8.316;2022-11-20T08:21:29;0.40;99.90
3626;DHT22;1827;50.534;8.316;2022-11-20T08:23:55;0.50;99.90
3626;DHT22;1827;50.534;8.316;2022-11-20T08:26:21;0.70;99.90
3626;DHT22;1827;50.534;8.316;2022-11-20T08:28:46;0.60;99.90
3626;DHT22;1827;50.534;8.316;2022-11-20T08:31:12;0.60;99.90
3626;DHT22;1827;50.534;8.316;2022-11-20T08:33:38;0.70;99.90
3626;DHT22;1827;50.534;8.316;2022-11-20T08:36:03;0.80;99.90
3626;DHT22;1827;50.534;8.316;2022-11-20T08:38:30;0.90;99.90
3626;DHT22;1827;50.534;8.316;2022-11-20T08:40:59;0.80;99.90
3626;DHT22;1827;50.534;8.316;2022-11-20T08:43:43;0.90;99.90
3626;DHT22;1827;50.534;8.316;2022-11-20T08:46:09;0.80;99.90
3626;DHT22;1827;50.534;8.316;2022-11-20T08:48:34;0.80;99.90
3626;DHT22;1827;50.534;8.316;2022-11-20T08:51:00;0.90;99.90
3626;DHT22;1827;50.534;8.316;2022-11-20T08:53:26;1.00;99.90
3626;DHT22;1827;50.534;8.316;2022-11-20T08:55:51;0.80;99.90
3626;DHT22;1827;50.534;8.316;2022-11-20T08:58:17;0.80;99.90
3626;DHT22;1827;50.534;8.316;2022-11-20T09:00:42;0.90;99.90
3626;DHT22;1827;50.534;8.316;2022-11-20T09:03:08;1.00;99.90
3626;DHT22;1827;50.534;8.316;2022-11-20T09:05:34;1.10;99.90
3626;DHT22;1827;50.534;8.316;2022-11-20T09:07:59;1.00;99.90
3626;DHT22;1827;50.534;8.316;2022-11-20T09:10:28;1.10;99.90
3626;DHT22;1827;50.534;8.316;2022-11-20T09:12:54;1.10;99.90
3626;DHT22;1827;50.534;8.316;2022-11-20T09:15:20;1.00;99.90
3626;DHT22;1827;50.534;8.316;2022-11-20T09:20:18;0.80;99.90
3626;DHT22;1827;50.534;8.316;2022-11-20T09:22:44;1.00;99.90
3626;DHT22;1827;50.534;8.316;2022-11-20T09:25:09;1.00;99.90
3626;DHT22;1827;50.534;8.316;2022-11-20T09:27:35;1.00;99.90
3626;DHT22;1827;50.534;8.316;2022-11-20T09:30:01;1.10;99.90
3626;DHT22;1827;50.534;8.316;2022-11-20T09:32:26;1.30;99.90
3626;DHT22;1827;50.534;8.316;2022-11-20T09:34:52;1.50;99.90
3626;DHT22;1827;50.534;8.316;2022-11-20T09:37:17;1.60;99.90
3626;DHT22;1827;50.534;8.316;2022-11-20T09:39:43;1.50;99.90
3626;DHT22;1827;50.534;8.316;2022-11-20T09:45:13;1.70;99.90
3626;DHT22;1827;50.534;8.316;2022-11-20T09:47:58;2.00;99.90
3626;DHT22;1827;50.534;8.316;2022-11-20T09:53:13;2.20;99.90
3626;DHT22;1827;50.534;8.316;2022-11-20T09:55:40;2.20;99.90
3626;DHT22;1827;50.534;8.316;2022-11-20T09:58:06;2.20;99.90
3626;DHT22;1827;50.534;8.316;2022-11-20T10:00:34;2.20;99.90
3626;DHT22;1827;50.534;8.316;2022-11-20T10:03:06;2.20;99.90
3626;DHT22;1827;50.534;8.316;2022-11-20T10:05:41;2.20;99.90
3626;DHT22;1827;50.534;8.316;2022-11-20T10:08:18;2.20;99.90
3626;DHT22;1827;50.534;8.316;2022-11-20T10:11:11;2.00;99.90
3626;DHT22;1827;50.534;8.316;2022-11-20T10:16:12;2.20;99.90
3626;DHT22;1827;50.534;8.316;2022-11-20T10:18:48;2.20;99.90
3626;DHT22;1827;50.534;8.316;2022-11-20T10:21:35;2.20;99.90
3626;DHT22;1827;50.534;8.316;2022-11-20T10:31:33;2.40;99.90
3626;DHT22;1827;50.534;8.316;2022-11-20T10:34:01;2.50;99.90
3626;DHT22;1827;50.534;8.316;2022-11-20T10:36:30;2.40;99.90
3626;DHT22;1827;50.534;8.316;2022-11-20T10:39:14;2.10;99.90
3626;DHT22;1827;50.534;8.316;2022-11-20T10:41:42;2.10;99.90
3626;DHT22;1827;50.534;8.316;2022-11-20T10:44:12;2.00;99.90
3626;DHT22;1827;50.534;8.316;2022-11-20T10:46:40;1.90;99.90
3626;DHT22;1827;50.534;8.316;2022-11-20T10:49:12;1.90;99.90
3626;DHT22;1827;50.534;8.316;2022-11-20T10:57:00;1.70;99.90
3626;DHT22;1827;50.534;8.316;2022-11-20T10:59:45;1.70;99.90
3626;DHT22;1827;50.534;8.316;2022-11-20T11:02:19;1.70;99.90
3626;DHT22;1827;50.534;8.316;2022-11-20T11:04:45;1.80;99.90
3626;DHT22;1827;50.534;8.316;2022-11-20T11:07:25;1.90;99.90
3626;DHT22;1827;50.534;8.316;2022-11-20T11:09:53;1.80;99.90
3626;DHT22;1827;50.534;8.316;2022-11-20T11:12:20;2.00;99.90
3626;DHT22;1827;50.534;8.316;2022-11-20T11:14:47;2.00;99.90
3626;DHT22;1827;50.534;8.316;2022-11-20T11:17:29;2.00;99.90
3626;DHT22;1827;50.534;8.316;2022-11-20T11:19:59;2.10;99.90
3626;DHT22;1827;50.534;8.316;2022-11-20T11:22:25;2.00;99.90
3626;DHT22;1827;50.534;8.316;2022-11-20T11:24:53;1.90;99.90
3626;DHT22;1827;50.534;8.316;2022-11-20T11:27:20;2.20;99.90
3626;DHT22;1827;50.534;8.316;2022-11-20T11:29:46;2.30;99.90
3626;DHT22;1827;50.534;8.316;2022-11-20T11:32:13;2.20;99.90
3626;DHT22;1827;50.534;8.316;2022-11-20T11:34:39;2.50;99.90
3626;DHT22;1827;50.534;8.316;2022-11-20T11:37:10;2.50;99.90
3626;DHT22;1827;50.534;8.316;2022-11-20T11:39:37;2.40;99.90
3626;DHT22;1827;50.534;8.316;2022-11-20T11:42:11;2.10;99.90
3626;DHT22;1827;50.534;8.316;2022-11-20T11:44:38;2.20;99.90
3626;DHT22;1827;50.534;8.316;2022-11-20T11:47:31;2.30;99.90
3626;DHT22;1827;50.534;8.316;2022-11-20T11:55:02;2.20;99.90
3626;DHT22;1827;50.534;8.316;2022-11-20T12:00:14;2.30;99.90
3626;DHT22;1827;50.534;8.316;2022-11-20T12:05:30;2.90;99.90
3626;DHT22;1827;50.534;8.316;2022-11-20T12:10:58;2.80;99.90
3626;DHT22;1827;50.534;8.316;2022-11-20T12:15:59;2.70;99.90
3626;DHT22;1827;50.534;8.316;2022-11-20T12:18:26;2.80;99.90
3626;DHT22;1827;50.534;8.316;2022-11-20T12:21:12;2.90;99.90
3626;DHT22;1827;50.534;8.316;2022-11-20T12:29:07;2.70;99.90
3626;DHT22;1827;50.534;8.316;2022-11-20T12:31:42;2.80;99.90
3626;DHT22;1827;50.534;8.316;2022-11-20T12:39:21;2.60;99.90
3626;DHT22;1827;50.534;8.316;2022-11-20T12:55:20;2.80;99.90
3626;DHT22;1827;50.534;8.316;2022-11-20T13:00:25;2.80;99.90
3626;DHT22;1827;50.534;8.316;2022-11-20T13:08:31;2.80;99.90
3626;DHT22;1827;50.534;8.316;2022-11-20T13:11:10;2.80;99.90
3626;DHT22;1827;50.534;8.316;2022-11-20T13:16:26;2.80;99.90
3626;DHT22;1827;50.534;8.316;2022-11-20T13:18:55;2.80;99.90
3626;DHT22;1827;50.534;8.316;2022-11-20T13:21:22;2.80;99.90
3626;DHT22;1827;50.534;8.316;2022-11-20T13:24:06;2.80;99.90
3626;DHT22;1827;50.534;8.316;2022-11-20T13:26:31;2.90;99.90
3626;DHT22;1827;50.534;8.316;2022-11-20T13:29:02;2.80;99.90
3626;DHT22;1827;50.534;8.316;2022-11-20T13:31:30;2.70;99.90
3626;DHT22;1827;50.534;8.316;2022-11-20T13:33:57;2.80;99.90
3626;DHT22;1827;50.534;8.316;2022-11-20T13:36:24;2.80;99.90
3626;DHT22;1827;50.534;8.316;2022-11-20T13:38:52;2.70;99.90
3626;DHT22;1827;50.534;8.316;2022-11-20T13:44:23;2.70;99.90
3626;DHT22;1827;50.534;8.316;2022-11-20T13:46:50;2.80;99.90
3626;DHT22;1827;50.534;8.316;2022-11-20T13:49:32;2.70;99.90
3626;DHT22;1827;50.534;8.316;2022-11-20T13:52:45;2.70;99.90
3626;DHT22;1827;50.534;8.316;2022-11-20T13:59:58;2.70;99.90
3626;DHT22;1827;50.534;8.316;2022-11-20T14:02:27;2.70;99.90
3626;DHT22;1827;50.534;8.316;2022-11-20T14:04:57;2.80;99.90
3626;DHT22;1827;50.534;8.316;2022-11-20T14:07:35;2.80;99.90
3626;DHT22;1827;50.534;8.316;2022-11-20T14:10:01;2.70;99.90
3626;DHT22;1827;50.534;8.316;2022-11-20T14:12:28;2.70;99.90
3626;DHT22;1827;50.534;8.316;2022-11-20T14:14:54;2.70;99.90
3626;DHT22;1827;50.534;8.316;2022-11-20T14:17:21;2.80;99.90
3626;DHT22;1827;50.534;8.316;2022-11-20T14:19:47;2.80;99.90
3626;DHT22;1827;50.534;8.316;2022-11-20T14:24:44;2.80;99.90
3626;DHT22;1827;50.534;8.316;2022-11-20T14:27:13;2.80;99.90
3626;DHT22;1827;50.534;8.316;2022-11-20T14:29:39;2.80;99.90
3626;DHT22;1827;50.534;8.316;2022-11-20T14:32:08;2.80;99.90
3626;DHT22;1827;50.534;8.316;2022-11-20T14:34:35;2.80;99.90
3626;DHT22;1827;50.534;8.316;2022-11-20T14:37:03;2.80;99.90
3626;DHT22;1827;50.534;8.316;2022-11-20T14:39:34;2.90;99.90
3626;DHT22;1827;50.534;8.316;2022-11-20T14:42:00;2.80;99.90
3626;DHT22;1827;50.534;8.316;2022-11-20T14:44:30;2.80;99.90
3626;DHT22;1827;50.534;8.316;2022-11-20T14:46:57;2.80;99.90
3626;DHT22;1827;50.534;8.316;2022-11-20T14:49:24;2.80;99.90
3626;DHT22;1827;50.534;8.316;2022-11-20T14:52:00;2.80;99.90
3626;DHT22;1827;50.534;8.316;2022-11-20T14:54:26;2.80;99.90
3626;DHT22;1827;50.534;8.316;2022-11-20T14:56:59;2.80;99.90
3626;DHT22;1827;50.534;8.316;2022-11-20T14:59:32;2.80;99.90
3626;DHT22;1827;50.534;8.316;2022-11-20T15:01:59;2.80;99.90
3626;DHT22;1827;50.534;8.316;2022-11-20T15:04:25;2.80;99.90
3626;DHT22;1827;50.534;8.316;2022-11-20T15:06:54;2.80;99.90
3626;DHT22;1827;50.534;8.316;2022-11-20T15:09:20;2.80;99.90
3626;DHT22;1827;50.534;8.316;2022-11-20T15:11:59;2.80;99.90
3626;DHT22;1827;50.534;8.316;2022-11-20T15:14:25;2.80;99.90
3626;DHT22;1827;50.534;8.316;2022-11-20T15:16:51;2.70;99.90
3626;DHT22;1827;50.534;8.316;2022-11-20T15:19:18;2.70;99.90
3626;DHT22;1827;50.534;8.316;2022-11-20T15:21:44;2.70;99.90
3626;DHT22;1827;50.534;8.316;2022-11-20T15:24:09;2.70;99.90
3626;DHT22;1827;50.534;8.316;2022-11-20T15:26:35;2.70;99.90
3626;DHT22;1827;50.534;8.316;2022-11-20T15:29:02;2.70;99.90
3626;DHT22;1827;50.534;8.316;2022-11-20T15:31:28;2.70;99.90
3626;DHT22;1827;50.534;8.316;2022-11-20T15:33:53;2.70;99.90
3626;DHT22;1827;50.534;8.316;2022-11-20T15:36:19;2.60;99.90
3626;DHT22;1827;50.534;8.316;2022-11-20T15:38:44;2.70;99.90
3626;DHT22;1827;50.534;8.316;2022-11-20T15:41:10;2.60;99.90
3626;DHT22;1827;50.534;8.316;2022-11-20T15:43:36;2.60;99.90
3626;DHT22;1827;50.534;8.316;2022-11-20T15:46:03;2.60;99.90
3626;DHT22;1827;50.534;8.316;2022-11-20T15:48:31;2.60;99.90
3626;DHT22;1827;50.534;8.316;2022-11-20T15:51:21;2.60;99.90
3626;DHT22;1827;50.534;8.316;2022-11-20T15:53:43;2.50;99.90
3626;DHT22;1827;50.534;8.316;2022-11-20T15:56:12;2.50;99.90
3626;DHT22;1827;50.534;8.316;2022-11-20T15:58:38;2.50;99.90
3626;DHT22;1827;50.534;8.316;2022-11-20T16:01:03;2.40;99.90
3626;DHT22;1827;50.534;8.316;2022-11-20T16:03:29;2.50;99.90
3626;DHT22;1827;50.534;8.316;2022-11-20T16:05:55;2.40;99.90
3626;DHT22;1827;50.534;8.316;2022-11-20T16:08:20;2.40;99.90
3626;DHT22;1827;50.534;8.316;2022-11-20T16:10:46;2.50;99.90
3626;DHT22;1827;50.534;8.316;2022-11-20T16:13:16;2.50;99.90
3626;DHT22;1827;50.534;8.316;2022-11-20T16:16:04;2.50;99.90
3626;DHT22;1827;50.534;8.316;2022-11-20T16:18:30;2.40;99.90
3626;DHT22;1827;50.534;8.316;2022-11-20T16:20:56;2.40;99.90
3626;DHT22;1827;50.534;8.316;2022-11-20T16:23:22;2.40;99.90
3626;DHT22;1827;50.534;8.316;2022-11-20T16:25:48;2.40;99.90
3626;DHT22;1827;50.534;8.316;2022-11-20T16:28:14;2.40;99.90
3626;DHT22;1827;50.534;8.316;2022-11-20T16:30:40;2.40;99.90
3626;DHT22;1827;50.534;8.316;2022-11-20T16:33:09;2.40;99.90
3626;DHT22;1827;50.534;8.316;2022-11-20T16:35:35;2.30;99.90
3626;DHT22;1827;50.534;8.316;2022-11-20T16:38:00;2.30;99.90
3626;DHT22;1827;50.534;8.316;2022-11-20T16:40:26;2.30;99.90
3626;DHT22;1827;50.534;8.316;2022-11-20T16:42:52;2.30;99.90
3626;DHT22;1827;50.534;8.316;2022-11-20T16:45:17;2.30;99.90
3626;DHT22;1827;50.534;8.316;2022-11-20T16:47:43;2.30;99.90
3626;DHT22;1827;50.534;8.316;2022-11-20T16:50:09;2.30;99.90
3626;DHT22;1827;50.534;8.316;2022-11-20T16:52:35;2.40;99.90
3626;DHT22;1827;50.534;8.316;2022-11-20T16:55:00;2.50;99.90
3626;DHT22;1827;50.534;8.316;2022-11-20T16:57:29;2.50;99.90
3626;DHT22;1827;50.534;8.316;2022-11-20T16:59:55;2.50;99.90
3626;DHT22;1827;50.534;8.316;2022-11-20T17:02:21;2.50;99.90
3626;DHT22;1827;50.534;8.316;2022-11-20T17:04:46;2.50;99.90
3626;DHT22;1827;50.534;8.316;2022-11-20T17:07:12;2.50;99.90
3626;DHT22;1827;50.534;8.316;2022-11-20T17:09:38;2.40;99.90
3626;DHT22;1827;50.534;8.316;2022-11-20T17:12:03;2.40;99.90
3626;DHT22;1827;50.534;8.316;2022-11-20T17:14:29;2.30;99.90
3626;DHT22;1827;50.534;8.316;2022-11-20T17:16:54;2.30;99.90
3626;DHT22;1827;50.534;8.316;2022-11-20T17:19:20;2.20;99.90
3626;DHT22;1827;50.534;8.316;2022-11-20T17:21:46;2.20;99.90
3626;DHT22;1827;50.534;8.316;2022-11-20T17:24:12;2.20;99.90
3626;DHT22;1827;50.534;8.316;2022-11-20T17:26:38;2.20;99.90
3626;DHT22;1827;50.534;8.316;2022-11-20T17:29:09;2.20;99.90
3626;DHT22;1827;50.534;8.316;2022-11-20T17:31:36;2.20;99.90
3626;DHT22;1827;50.534;8.316;2022-11-20T17:34:06;2.20;99.90
3626;DHT22;1827;50.534;8.316;2022-11-20T17:36:31;2.10;99.90
3626;DHT22;1827;50.534;8.316;2022-11-20T17:38:57;2.10;99.90
3626;DHT22;1827;50.534;8.316;2022-11-20T17:41:24;2.10;99.90
3626;DHT22;1827;50.534;8.316;2022-11-20T17:43:52;2.10;99.90